createdAt,value
2022-11-30T00:01:34.604Z,1.26
2022-11-30T00:04:21.670Z,1.19
2022-11-30T00:07:08.372Z,1.20
2022-11-30T00:09:59.384Z,1.19
2022-11-30T00:12:47.011Z,1.09
2022-11-30T00:15:34.098Z,1.11
2022-11-30T00:18:23.782Z,0.88
2022-11-30T00:21:18.048Z,1.12
2022-11-30T00:24:06.585Z,1.07
2022-11-30T00:26:53.353Z,0.97
2022-11-30T00:29:41.708Z,1.11
2022-11-30T00:32:28.337Z,0.71
2022-11-30T00:35:16.205Z,1.09
2022-11-30T00:38:06.994Z,1.09
2022-11-30T00:40:53.853Z,1.14
2022-11-30T00:43:41.390Z,1.04
2022-11-30T00:46:29.689Z,1.13
2022-11-30T00:49:16.368Z,1.05
2022-11-30T00:52:05.794Z,1.12
2022-11-30T00:54:53.089Z,1.13
2022-11-30T00:57:42.111Z,1.10
2022-11-30T01:00:29.357Z,0.99
2022-11-30T01:03:18.699Z,1.01
2022-11-30T01:06:13.003Z,0.74
2022-11-30T01:08:59.504Z,0.91
2022-11-30T01:11:45.998Z,0.76
2022-11-30T01:14:35.198Z,0.75
2022-11-30T01:17:24.408Z,0.55
2022-11-30T01:20:14.004Z,0.72
2022-11-30T01:23:04.069Z,0.48
2022-11-30T01:25:55.438Z,0.65
2022-11-30T01:28:44.597Z,0.42
2022-11-30T01:31:37.053Z,0.33
2022-11-30T01:34:29.683Z,0.53
2022-11-30T01:37:19.290Z,0.44
2022-11-30T01:40:08.813Z,0.48
2022-11-30T01:42:56.297Z,0.31
2022-11-30T01:45:46.185Z,0.42
2022-11-30T01:48:35.022Z,0.50
2022-11-30T01:51:24.732Z,0.51
2022-11-30T01:54:16.048Z,0.47
2022-11-30T01:57:11.271Z,0.32
2022-11-30T01:59:59.901Z,0.31
2022-11-30T02:03:09.305Z,0.60
2022-11-30T02:05:57.194Z,0.47
2022-11-30T02:08:46.357Z,0.38
2022-11-30T02:11:32.594Z,0.48
2022-11-30T02:14:41.134Z,0.54
2022-11-30T02:17:52.808Z,0.47
2022-11-30T02:20:49.636Z,0.22
2022-11-30T02:23:47.772Z,0.38
2022-11-30T02:26:59.043Z,0.29
2022-11-30T02:30:01.904Z,0.18
2022-11-30T02:33:02.848Z,0.18
2022-11-30T02:35:54.744Z,-0.02
2022-11-30T02:38:42.567Z,0.04
2022-11-30T02:41:38.815Z,-0.12
2022-11-30T02:44:26.988Z,-0.08
2022-11-30T02:47:16.621Z,-0.34
2022-11-30T02:50:16.497Z,-0.17
2022-11-30T02:53:02.671Z,-0.17
2022-11-30T02:55:49.004Z,-0.14
2022-11-30T02:58:35.773Z,-0.16
2022-11-30T03:01:22.836Z,-0.10
2022-11-30T03:04:09.068Z,-0.36
2022-11-30T03:06:57.888Z,-0.43
2022-11-30T03:09:46.347Z,-0.23
2022-11-30T03:12:33.045Z,-0.31
2022-11-30T03:15:30.389Z,-0.23
2022-11-30T03:18:17.729Z,-0.29
2022-11-30T03:21:14.831Z,-0.25
2022-11-30T03:24:01.400Z,-0.27
2022-11-30T03:26:47.730Z,-0.51
2022-11-30T03:29:34.847Z,-0.20
2022-11-30T03:32:21.229Z,-0.27
2022-11-30T03:35:10.602Z,-0.29
2022-11-30T03:37:57.676Z,-0.27
2022-11-30T03:40:44.460Z,-0.36
2022-11-30T03:43:31.449Z,-0.58
2022-11-30T03:46:21.564Z,-0.40
2022-11-30T03:49:09.479Z,-0.49
2022-11-30T03:51:56.647Z,-0.53
2022-11-30T03:54:44.297Z,-0.60
2022-11-30T03:57:31.050Z,-0.57
2022-11-30T04:00:20.181Z,-0.50
2022-11-30T04:03:06.800Z,-0.50
2022-11-30T04:05:53.490Z,-0.56
2022-11-30T04:08:40.535Z,-0.71
2022-11-30T04:11:26.663Z,-0.56
2022-11-30T04:14:15.474Z,-0.61
2022-11-30T04:17:01.626Z,-0.49
2022-11-30T04:19:48.397Z,-0.67
2022-11-30T04:22:37.540Z,-0.71
2022-11-30T04:25:26.137Z,-0.53
2022-11-30T04:28:12.289Z,-0.56
2022-11-30T04:31:02.842Z,-0.56
2022-11-30T04:33:53.927Z,-0.59
2022-11-30T04:36:42.233Z,-0.53
2022-11-30T04:39:28.514Z,-0.61
2022-11-30T04:42:15.498Z,-1.08
2022-11-30T04:45:04.933Z,-0.68
2022-11-30T04:47:52.614Z,-0.66
2022-11-30T04:50:39.572Z,-0.80
2022-11-30T04:53:26.127Z,-0.81
2022-11-30T04:56:12.325Z,-0.88
2022-11-30T04:59:01.500Z,-1.16
2022-11-30T05:01:48.053Z,-0.95
2022-11-30T05:04:36.824Z,-1.08
2022-11-30T05:07:23.186Z,-0.93
2022-11-30T05:10:11.249Z,-0.95
2022-11-30T05:12:58.226Z,-0.97
2022-11-30T05:15:45.625Z,-0.89
2022-11-30T05:18:32.119Z,-0.88
2022-11-30T05:21:20.951Z,-0.86
2022-11-30T05:24:07.614Z,-0.83
2022-11-30T05:26:57.211Z,-0.87
2022-11-30T05:29:44.012Z,-1.21
2022-11-30T05:32:30.428Z,-0.90
2022-11-30T05:35:21.532Z,-0.88
2022-11-30T05:38:10.887Z,-0.94
2022-11-30T05:41:03.487Z,-1.09
2022-11-30T05:43:51.662Z,-0.93
2022-11-30T05:46:41.284Z,-0.98
2022-11-30T05:49:28.005Z,-0.96
2022-11-30T05:52:14.273Z,-1.36
2022-11-30T05:55:04.266Z,-0.96
2022-11-30T05:57:56.550Z,-1.14
2022-11-30T06:00:45.697Z,-0.80
2022-11-30T06:03:34.398Z,-1.01
2022-11-30T06:06:21.473Z,-0.76
2022-11-30T06:09:08.050Z,-0.97
2022-11-30T06:11:54.902Z,-0.70
2022-11-30T06:14:41.217Z,-0.67
2022-11-30T06:17:27.962Z,-0.70
2022-11-30T06:20:14.415Z,-0.67
2022-11-30T06:23:02.035Z,-0.64
2022-11-30T06:25:48.982Z,-0.59
2022-11-30T06:28:38.907Z,-0.76
2022-11-30T06:31:25.218Z,-0.52
2022-11-30T06:34:15.088Z,-0.48
2022-11-30T06:37:01.203Z,-0.55
2022-11-30T06:40:05.882Z,-0.54
2022-11-30T06:42:55.178Z,-0.82
2022-11-30T06:45:48.534Z,-0.62
2022-11-30T06:48:35.529Z,-0.94
2022-11-30T06:51:24.252Z,-0.69
2022-11-30T06:54:13.501Z,-0.76
2022-11-30T06:57:01.377Z,-0.81
2022-11-30T06:59:47.882Z,-0.94
2022-11-30T07:02:34.966Z,-0.81
2022-11-30T07:05:21.410Z,-0.76
2022-11-30T07:08:08.062Z,-1.06
2022-11-30T07:10:54.870Z,-0.75
2022-11-30T07:13:41.600Z,-0.72
2022-11-30T07:16:31.041Z,-1.18
2022-11-30T07:19:18.582Z,-0.84
2022-11-30T07:22:05.467Z,-0.93
2022-11-30T07:25:10.755Z,-0.96
2022-11-30T07:27:57.239Z,-1.18
2022-11-30T07:30:43.783Z,-0.78
2022-11-30T07:33:33.914Z,-1.09
2022-11-30T07:36:23.130Z,-0.77
2022-11-30T07:39:09.995Z,-0.68
2022-11-30T07:41:57.030Z,-0.72
2022-11-30T07:44:45.928Z,-0.64
2022-11-30T07:47:33.065Z,-0.71
2022-11-30T07:50:21.924Z,-0.61
2022-11-30T07:53:11.283Z,-0.66
2022-11-30T07:56:05.299Z,-0.74
2022-11-30T07:58:55.839Z,-0.80
2022-11-30T08:01:42.868Z,-0.76
2022-11-30T08:04:29.933Z,-0.71
2022-11-30T08:07:18.414Z,-0.81
2022-11-30T08:10:08.461Z,-0.83
2022-11-30T08:12:55.054Z,-0.90
2022-11-30T08:15:43.278Z,-0.88
2022-11-30T08:18:30.086Z,-0.90
2022-11-30T08:21:18.835Z,-0.98
2022-11-30T08:24:05.821Z,-0.86
2022-11-30T08:26:55.956Z,-0.95
2022-11-30T08:29:42.689Z,-0.89
2022-11-30T08:32:29.117Z,-0.82
2022-11-30T08:35:16.740Z,-0.88
2022-11-30T08:38:04.864Z,-0.84
2022-11-30T08:40:51.346Z,-1.05
2022-11-30T08:43:40.962Z,-0.87
2022-11-30T08:49:37.879Z,-1.09
2022-11-30T08:52:27.363Z,-0.97
2022-11-30T08:55:16.189Z,-1.17
2022-11-30T08:58:02.663Z,-1.06
2022-11-30T09:03:39.249Z,-0.83
2022-11-30T09:06:28.109Z,-0.76
2022-11-30T09:09:14.394Z,-0.83
2022-11-30T09:12:01.095Z,-0.82
2022-11-30T09:14:53.930Z,-0.91
2022-11-30T09:17:42.922Z,-0.94
2022-11-30T09:20:29.388Z,-0.82
2022-11-30T09:23:16.882Z,-0.83
2022-11-30T09:26:13.255Z,-0.83
2022-11-30T09:29:03.794Z,-0.78
2022-11-30T09:31:50.113Z,-0.65
2022-11-30T09:34:36.860Z,-0.64
2022-11-30T09:37:23.842Z,-0.59
2022-11-30T09:40:13.350Z,-0.59
2022-11-30T09:43:10.343Z,-0.55
2022-11-30T09:45:58.340Z,-0.65
2022-11-30T09:48:50.252Z,-0.63
2022-11-30T09:51:48.279Z,-0.72
2022-11-30T09:54:39.391Z,-0.69
2022-11-30T09:57:30.639Z,-0.77
2022-11-30T10:00:19.609Z,-0.58
2022-11-30T10:03:06.682Z,-0.61
2022-11-30T10:06:00.172Z,-0.65
2022-11-30T10:08:57.642Z,-0.84
2022-11-30T10:11:48.908Z,-0.91
2022-11-30T10:14:46.038Z,-0.69
2022-11-30T10:17:42.805Z,-0.74
2022-11-30T10:21:03.251Z,-0.77
2022-11-30T10:24:16.062Z,-0.70
2022-11-30T10:27:16.964Z,-0.79
2022-11-30T10:30:03.677Z,-0.77
2022-11-30T10:32:56.409Z,-0.71
2022-11-30T10:35:45.816Z,-0.71
2022-11-30T10:38:37.889Z,-0.72
2022-11-30T10:41:34.093Z,-0.72
2022-11-30T10:44:41.294Z,-0.76
2022-11-30T10:47:33.977Z,-0.50
2022-11-30T10:50:20.995Z,-0.42
2022-11-30T10:53:10.845Z,-0.40
2022-11-30T10:56:01.415Z,-0.81
2022-11-30T10:58:51.440Z,-0.35
2022-11-30T11:01:40.441Z,-0.38
2022-11-30T11:04:28.048Z,-0.36
2022-11-30T11:07:15.999Z,-0.51
2022-11-30T11:10:02.694Z,-0.67
2022-11-30T11:12:54.217Z,-0.62
2022-11-30T11:15:40.804Z,-0.54
2022-11-30T11:18:29.146Z,-0.70
2022-11-30T11:21:20.099Z,-0.76
2022-11-30T11:24:14.718Z,-0.60
2022-11-30T11:27:04.205Z,-0.63
2022-11-30T11:30:05.370Z,-0.63
2022-11-30T11:33:14.293Z,-0.55
2022-11-30T11:36:07.439Z,-0.58
2022-11-30T11:38:53.542Z,-0.59
2022-11-30T11:41:40.645Z,-0.68
2022-11-30T11:44:28.195Z,-0.49
2022-11-30T11:47:26.739Z,-0.65
2022-11-30T11:50:12.986Z,-0.40
2022-11-30T11:53:23.402Z,-0.48
2022-11-30T11:56:13.862Z,-0.42
2022-11-30T11:59:32.301Z,-0.40
2022-11-30T12:02:29.867Z,-0.44
2022-11-30T12:05:26.731Z,-0.54
2022-11-30T12:08:35.003Z,-0.40
2022-11-30T12:11:26.247Z,-0.50
2022-11-30T12:14:15.120Z,-0.78
2022-11-30T12:17:23.220Z,-0.73
2022-11-30T12:21:25.002Z,-0.33
2022-11-30T12:25:33.933Z,-0.15
2022-11-30T12:38:39.730Z,-0.30
2022-11-30T12:42:28.619Z,-0.44
2022-11-30T12:45:49.846Z,-0.55
2022-11-30T12:54:13.070Z,-0.45
2022-11-30T12:57:22.069Z,-0.51
2022-11-30T13:00:24.903Z,-0.42
2022-11-30T13:03:34.287Z,-0.50
2022-11-30T13:06:25.150Z,-0.55
2022-11-30T13:09:33.052Z,-0.57
2022-11-30T13:12:36.184Z,-0.73
2022-11-30T13:15:27.788Z,-0.67
2022-11-30T13:18:17.926Z,-0.83
2022-11-30T13:21:13.811Z,-0.71
2022-11-30T13:24:06.184Z,-0.53
2022-11-30T13:27:01.842Z,-0.50
2022-11-30T13:30:19.766Z,-0.47
2022-11-30T13:33:35.343Z,-0.48
2022-11-30T13:36:42.595Z,-0.47
2022-11-30T13:39:31.502Z,-0.51
2022-11-30T13:42:37.573Z,-0.49
2022-11-30T13:45:31.653Z,-0.55
2022-11-30T13:48:40.080Z,-0.48
2022-11-30T13:51:38.779Z,-0.56
2022-11-30T13:54:50.802Z,-0.55
2022-11-30T13:57:38.275Z,-0.50
2022-11-30T14:00:30.411Z,-0.47
2022-11-30T14:03:22.521Z,-0.61
2022-11-30T14:06:39.518Z,-0.37
2022-11-30T14:09:41.264Z,-0.54
2022-11-30T14:12:34.727Z,-0.27
2022-11-30T14:15:39.855Z,-0.26
2022-11-30T14:18:40.544Z,-0.30
2022-11-30T14:21:32.647Z,-0.40
2022-11-30T14:24:28.220Z,-0.47
2022-11-30T14:27:26.684Z,-0.49
2022-11-30T14:30:21.213Z,-1.02
2022-11-30T14:33:19.850Z,-0.49
2022-11-30T14:36:07.409Z,-0.64
2022-11-30T14:38:54.777Z,-0.68
2022-11-30T14:41:41.393Z,-0.59
2022-11-30T14:44:28.644Z,-0.57
2022-11-30T14:47:48.134Z,-0.52
2022-11-30T14:50:35.362Z,-0.83
2022-11-30T14:53:44.106Z,-0.49
2022-11-30T14:56:49.804Z,-0.41
2022-11-30T14:59:51.085Z,-0.59
2022-11-30T15:02:39.011Z,-0.39
2022-11-30T15:05:27.479Z,-0.37
2022-11-30T15:08:15.766Z,-0.33
2022-11-30T15:11:07.911Z,-0.40
2022-11-30T15:13:57.077Z,-0.33
2022-11-30T15:16:57.942Z,-0.38
2022-11-30T15:19:48.783Z,-0.51
2022-11-30T15:22:35.461Z,-0.65
2022-11-30T15:25:25.195Z,-0.53
2022-11-30T15:28:27.784Z,-0.48
2022-11-30T15:31:16.361Z,-0.54
2022-11-30T15:34:03.295Z,-0.54
2022-11-30T15:36:56.719Z,-0.53
2022-11-30T15:39:49.879Z,-0.47
2022-11-30T15:42:43.584Z,-0.56
2022-11-30T15:45:36.030Z,-0.92
2022-11-30T15:48:40.796Z,-0.49
2022-11-30T15:51:38.070Z,-0.49
2022-11-30T15:54:45.027Z,-0.68
2022-11-30T15:57:59.857Z,-0.38
2022-11-30T16:01:10.784Z,-0.64
2022-11-30T16:03:58.195Z,-0.54
2022-11-30T16:06:46.843Z,-0.33
2022-11-30T16:09:38.381Z,-0.32
2022-11-30T16:12:32.162Z,-0.37
2022-11-30T16:15:25.024Z,-0.43
2022-11-30T16:18:17.559Z,-0.24
2022-11-30T16:21:04.464Z,-0.26
2022-11-30T16:23:50.994Z,-0.39
2022-11-30T16:26:52.840Z,-0.25
2022-11-30T16:29:39.318Z,-0.40
2022-11-30T16:32:25.781Z,-0.31
2022-11-30T16:35:20.812Z,-0.34
2022-11-30T16:38:07.001Z,-0.36
2022-11-30T16:40:55.841Z,-0.27
2022-11-30T16:43:42.826Z,-0.29
2022-11-30T16:46:31.457Z,-0.28
2022-11-30T16:49:20.653Z,-0.36
2022-11-30T16:52:10.407Z,-0.48
2022-11-30T16:55:00.255Z,-0.23
2022-11-30T16:57:49.974Z,-0.20
2022-11-30T17:00:38.616Z,-0.22
2022-11-30T17:03:28.975Z,-0.13
2022-11-30T17:06:20.046Z,-0.14
2022-11-30T17:09:06.681Z,-0.13
2022-11-30T17:11:52.673Z,-0.09
2022-11-30T17:14:39.070Z,-0.16
2022-11-30T17:17:30.100Z,-0.20
2022-11-30T17:20:17.788Z,-0.16
2022-11-30T17:23:06.201Z,-0.15
2022-11-30T17:25:56.431Z,-0.13
2022-11-30T17:28:42.921Z,-0.15
2022-11-30T17:31:29.699Z,-0.52
2022-11-30T17:34:15.915Z,-0.33
2022-11-30T17:37:02.561Z,-0.12
2022-11-30T17:39:51.830Z,-0.13
2022-11-30T17:42:38.672Z,-0.31
2022-11-30T17:45:28.488Z,-0.08
2022-11-30T17:48:18.315Z,-0.06
2022-11-30T17:51:05.686Z,-0.03
2022-11-30T17:53:52.449Z,0.02
2022-11-30T17:56:39.285Z,-0.15
2022-11-30T17:59:29.221Z,0.04
2022-11-30T18:02:15.517Z,0.01
2022-11-30T18:05:02.016Z,-0.13
2022-11-30T18:07:48.627Z,0.06
2022-11-30T18:10:35.296Z,0.08
2022-11-30T18:13:22.591Z,-0.01
2022-11-30T18:16:38.151Z,0.08
2022-11-30T18:19:24.664Z,0.08
2022-11-30T18:22:11.364Z,-0.18
2022-11-30T18:24:57.813Z,-0.23
2022-11-30T18:27:44.771Z,0.01
2022-11-30T18:30:31.463Z,0.08
2022-11-30T18:33:26.314Z,0.04
2022-11-30T18:36:13.772Z,-0.25
2022-11-30T18:39:04.646Z,-0.02
2022-11-30T18:41:52.741Z,-0.18
2022-11-30T18:44:42.231Z,-0.06
2022-11-30T18:47:28.495Z,0.09
2022-11-30T18:50:16.249Z,-0.09
2022-11-30T18:53:02.629Z,0.05
2022-11-30T18:55:49.681Z,0.04
2022-11-30T18:58:36.501Z,0.19
2022-11-30T19:01:24.399Z,0.10
2022-11-30T19:04:22.660Z,0.19
2022-11-30T19:07:10.692Z,0.17
2022-11-30T19:09:58.789Z,0.19
2022-11-30T19:12:47.309Z,0.26
2022-11-30T19:15:40.581Z,0.13
2022-11-30T19:18:29.508Z,0.18
2022-11-30T19:21:21.167Z,0.23
2022-11-30T19:24:10.139Z,0.33
2022-11-30T19:26:58.685Z,0.32
2022-11-30T19:29:46.761Z,0.13
2022-11-30T19:32:34.963Z,0.23
2022-11-30T19:35:25.803Z,0.26
2022-11-30T19:38:13.916Z,0.09
2022-11-30T19:41:09.105Z,0.26
2022-11-30T19:44:04.048Z,0.26
2022-11-30T19:46:53.361Z,0.26
2022-11-30T19:49:41.894Z,0.24
2022-11-30T19:52:30.148Z,0.22
2022-11-30T19:55:18.379Z,0.33
2022-11-30T19:58:07.219Z,0.34
2022-11-30T20:00:55.515Z,-0.10
2022-11-30T20:03:45.183Z,0.28
2022-11-30T20:06:36.920Z,0.20
2022-11-30T20:09:25.976Z,0.25
2022-11-30T20:12:13.617Z,0.23
2022-11-30T20:15:01.244Z,0.22
2022-11-30T20:17:48.971Z,0.23
2022-11-30T20:20:36.611Z,0.18
2022-11-30T20:23:24.139Z,0.25
2022-11-30T20:26:49.957Z,0.31
2022-11-30T20:29:36.555Z,0.32
2022-11-30T20:32:23.447Z,-0.19
2022-11-30T20:35:11.511Z,0.32
2022-11-30T20:37:59.075Z,0.27
2022-11-30T20:40:47.543Z,0.19
2022-11-30T20:43:37.743Z,0.22
2022-11-30T20:46:30.083Z,0.13
2022-11-30T20:49:19.338Z,0.24
2022-11-30T20:52:06.322Z,0.17
2022-11-30T20:54:53.382Z,0.12
2022-11-30T20:57:39.996Z,0.26
2022-11-30T21:00:26.985Z,0.28
2022-11-30T21:03:13.647Z,0.25
2022-11-30T21:06:03.315Z,-0.06
2022-11-30T21:08:49.497Z,0.32
2022-11-30T21:11:36.514Z,0.38
2022-11-30T21:14:23.906Z,0.41
2022-11-30T21:17:10.499Z,0.36
2022-11-30T21:20:00.691Z,0.35
2022-11-30T21:22:47.722Z,0.41
2022-11-30T21:25:35.345Z,0.34
2022-11-30T21:28:22.457Z,0.10
2022-11-30T21:31:11.809Z,0.16
2022-11-30T21:34:01.473Z,0.53
2022-11-30T21:36:48.993Z,0.48
2022-11-30T21:39:36.475Z,0.51
2022-11-30T21:42:22.700Z,0.29
2022-11-30T21:45:12.407Z,0.47
2022-11-30T21:47:58.941Z,0.50
2022-11-30T21:50:46.144Z,0.52
2022-11-30T21:53:36.269Z,0.47
2022-11-30T21:56:31.457Z,0.51
2022-11-30T21:59:18.576Z,0.43
2022-11-30T22:02:09.621Z,0.42
2022-11-30T22:04:56.100Z,0.37
2022-11-30T22:07:43.099Z,0.35
2022-11-30T22:10:34.164Z,0.52
2022-11-30T22:13:21.582Z,0.51
2022-11-30T22:16:20.850Z,0.55
2022-11-30T22:19:07.646Z,0.54
2022-11-30T22:21:54.250Z,0.51
2022-11-30T22:24:44.382Z,0.51
2022-11-30T22:27:31.066Z,0.51
2022-11-30T22:30:17.873Z,0.58
2022-11-30T22:33:04.229Z,0.42
2022-11-30T22:35:51.119Z,0.41
2022-11-30T22:38:37.510Z,0.54
2022-11-30T22:41:24.715Z,0.50
2022-11-30T22:44:15.925Z,0.55
2022-11-30T22:47:03.252Z,0.58
2022-11-30T22:49:49.744Z,0.62
2022-11-30T22:53:02.011Z,0.49
2022-11-30T22:55:48.308Z,0.67
2022-11-30T22:58:35.847Z,0.45
2022-11-30T23:01:24.405Z,0.26
2022-11-30T23:04:13.723Z,0.58
2022-11-30T23:07:01.154Z,0.32
2022-11-30T23:09:48.073Z,0.56
2022-11-30T23:12:58.417Z,0.47
2022-11-30T23:15:43.889Z,0.52
2022-11-30T23:18:32.883Z,0.48
2022-11-30T23:21:25.077Z,0.07
2022-11-30T23:24:15.234Z,0.42
2022-11-30T23:27:01.674Z,0.05
2022-11-30T23:29:48.311Z,0.24
2022-11-30T23:32:37.044Z,0.20
2022-11-30T23:35:24.445Z,0.33
2022-11-30T23:38:14.155Z,0.23
2022-11-30T23:41:10.096Z,0.35
2022-11-30T23:43:57.022Z,0.16
2022-11-30T23:46:43.831Z,0.27
2022-11-30T23:49:30.601Z,0.35
2022-11-30T23:52:16.933Z,0.26
2022-11-30T23:55:07.403Z,0.40
2022-11-30T23:57:53.854Z,0.35
